Time;durP1;ratioP1;P1;durP2;ratioP2;P2;SDS_P1;SDS_P2;PMS_P1;PMS_P2;Temp;Humidity;BMP_temperature;BMP_pressure;BME280_temperature;BME280_humidity;BME280_pressure;Samples;Min_cycle;Max_cycle;Signal;HPM_P1;HPM_P2
2023/04/12 00:02:09;;;;;;;3.30;1.05;;;;;;;19.14;40.15;100476.38;4994640;28;20066;-65
2023/04/12 00:04:35;;;;;;;3.67;1.05;;;;;;;19.13;40.40;100466.78;4999273;28;20034;-69
2023/04/12 00:07:01;;;;;;;5.13;1.33;;;;;;;19.12;40.45;100462.44;4996468;28;20037;-67
2023/04/12 00:09:29;;;;;;;3.85;1.30;;;;;;;19.11;40.36;100451.06;4992036;28;20030;-66
2023/04/12 00:11:58;;;;;;;4.32;1.10;;;;;;;19.11;40.27;100444.97;4988052;28;20026;-66
2023/04/12 00:14:26;;;;;;;4.50;1.48;;;;;;;19.11;40.49;100445.78;4985869;28;20034;-66
2023/04/12 00:16:52;;;;;;;3.40;1.00;;;;;;;19.11;40.46;100429.09;4984616;28;20402;-66
2023/04/12 00:19:17;;;;;;;3.22;1.10;;;;;;;19.08;40.61;100429.38;5000528;28;20140;-68
2023/04/12 00:21:43;;;;;;;2.53;1.02;;;;;;;19.08;40.58;100432.84;4991690;28;20046;-67
2023/04/12 00:24:09;;;;;;;5.03;1.40;;;;;;;19.06;40.57;100418.97;5003608;28;20034;-66
2023/04/12 00:26:34;;;;;;;2.55;0.82;;;;;;;19.07;40.17;100409.22;4993465;28;20030;-65
2023/04/12 00:29:00;;;;;;;4.70;1.20;;;;;;;19.07;40.46;100401.31;4995840;28;20459;-65
2023/04/12 00:31:25;;;;;;;3.22;1.10;;;;;;;19.07;40.63;100391.56;4995389;28;20030;-67
2023/04/12 00:33:50;;;;;;;4.13;1.30;;;;;;;19.06;40.54;100387.28;4983815;28;20483;-67
2023/04/12 00:36:16;;;;;;;2.65;1.05;;;;;;;19.06;40.57;100384.63;5001825;28;20073;-69
2023/04/12 00:38:41;;;;;;;2.92;1.00;;;;;;;19.05;40.61;100376.84;4973121;28;20034;-66
2023/04/12 00:41:07;;;;;;;3.35;1.13;;;;;;;19.04;40.50;100354.88;4997438;28;20062;-67
2023/04/12 00:43:33;;;;;;;3.65;1.15;;;;;;;19.00;40.61;100358.78;4996707;28;20068;-67
2023/04/12 00:45:58;;;;;;;4.50;1.30;;;;;;;19.00;40.56;100354.31;4973204;28;20026;-69
2023/04/12 00:48:25;;;;;;;3.55;1.20;;;;;;;19.00;40.69;100349.03;4983434;28;20042;-65
2023/04/12 00:50:54;;;;;;;3.47;1.20;;;;;;;18.99;40.72;100335.97;4986557;28;20050;-69
2023/04/12 00:53:21;;;;;;;3.22;1.30;;;;;;;18.99;40.77;100339.47;4996792;28;20069;-66
2023/04/12 00:55:48;;;;;;;3.00;1.20;;;;;;;18.99;40.70;100322.78;5001541;28;20038;-66
2023/04/12 00:58:15;;;;;;;4.32;1.23;;;;;;;18.96;40.76;100313.34;4983613;28;20033;-65
2023/04/12 01:00:41;;;;;;;3.63;1.10;;;;;;;19.00;40.79;100303.31;4985240;28;20034;-66
2023/04/12 01:03:07;;;;;;;4.22;1.08;;;;;;;18.97;40.73;100295.69;4983632;28;20084;-68
2023/04/12 01:05:48;;;;;;;5.30;1.10;;;;;;;18.93;40.86;100292.50;4988447;28;20038;-66
2023/04/12 01:08:34;;;;;;;3.45;1.27;;;;;;;18.98;40.84;100289.44;4991786;28;20034;-66
2023/04/12 01:11:07;;;;;;;3.40;1.08;;;;;;;18.95;40.73;100274.72;4985032;28;20060;-67
2023/04/12 01:13:43;;;;;;;5.32;1.17;;;;;;;18.97;40.91;100269.28;4984504;28;20095;-67
2023/04/12 01:16:26;;;;;;;3.90;1.25;;;;;;;18.95;40.59;100258.03;4995544;28;20231;-67
2023/04/12 01:18:58;;;;;;;4.30;1.23;;;;;;;18.96;40.86;100247.34;5002992;28;20029;-67
2023/04/12 01:21:33;;;;;;;4.10;1.00;;;;;;;18.95;41.06;100236.91;4989748;28;20034;-67
2023/04/12 01:24:19;;;;;;;5.43;1.08;;;;;;;18.94;40.70;100233.44;4996226;28;20042;-66
2023/04/12 01:26:50;;;;;;;2.97;0.95;;;;;;;18.94;41.09;100227.31;4994731;28;20502;-66
2023/04/12 01:29:20;;;;;;;2.67;1.02;;;;;;;18.93;40.76;100220.38;4996002;28;20080;-68
2023/04/12 01:31:53;;;;;;;3.03;1.10;;;;;;;18.93;40.79;100207.16;5001358;28;20076;-67
2023/04/12 01:34:20;;;;;;;2.92;0.95;;;;;;;18.93;41.01;100207.16;4987402;28;20030;-66
2023/04/12 01:36:46;;;;;;;3.63;1.30;;;;;;;18.90;41.13;100200.38;4984486;28;20041;-68
2023/04/12 01:39:12;;;;;;;2.97;1.00;;;;;;;18.91;40.77;100182.72;5000055;28;20029;-66
2023/04/12 01:41:40;;;;;;;3.53;1.17;;;;;;;18.90;40.84;100179.25;4984693;28;20467;-69
2023/04/12 01:44:05;;;;;;;4.47;1.10;;;;;;;18.91;40.67;100180.91;5001803;28;20474;-66
2023/04/12 01:46:31;;;;;;;2.70;1.00;;;;;;;18.91;40.82;100166.88;4996785;28;20044;-67
2023/04/12 01:48:57;;;;;;;2.55;1.13;;;;;;;18.88;40.77;100164.53;4994940;28;20039;-69
2023/04/12 01:51:48;;;;;;;3.38;1.00;;;;;;;18.86;40.93;100151.47;5002216;28;20037;-67
2023/04/12 01:54:32;;;;;;;2.88;1.05;;;;;;;18.87;40.77;100162.84;4983746;28;20045;-67
2023/04/12 01:57:01;;;;;;;2.00;1.00;;;;;;;18.87;40.90;100142.59;4995261;28;20053;-69
2023/04/12 01:59:31;;;;;;;4.57;1.10;;;;;;;18.85;40.90;100132.19;5001861;28;20036;-66
2023/04/12 02:01:57;;;;;;;3.30;1.10;;;;;;;18.87;40.88;100129.38;5000198;28;20057;-67
2023/04/12 02:04:26;;;;;;;2.83;0.90;;;;;;;18.85;40.89;100113.69;5001912;28;20038;-66
2023/04/12 02:06:51;;;;;;;3.45;1.23;;;;;;;18.83;41.11;100107.72;4995801;28;20052;-66
2023/04/12 02:09:17;;;;;;;3.60;1.20;;;;;;;18.84;40.91;100111.19;4996184;28;20034;-67
2023/04/12 02:11:47;;;;;;;3.38;0.98;;;;;;;18.82;41.01;100100.75;5001848;28;20037;-67
2023/04/12 02:14:12;;;;;;;4.38;1.20;;;;;;;18.83;40.96;100102.44;4997742;28;20034;-66
2023/04/12 02:16:38;;;;;;;3.20;1.30;;;;;;;18.81;40.86;100085.88;4982309;28;20045;-69
2023/04/12 02:19:07;;;;;;;4.35;1.17;;;;;;;18.80;40.98;100078.97;5001386;28;20048;-67
2023/04/12 02:21:40;;;;;;;2.92;0.98;;;;;;;18.79;41.24;100065.91;5001786;28;20124;-66
2023/04/12 02:24:05;;;;;;;3.35;1.00;;;;;;;18.80;41.21;100055.22;4983512;28;20038;-67
2023/04/12 02:26:30;;;;;;;3.33;1.02;;;;;;;18.81;40.85;100056.03;4974225;28;20097;-65
2023/04/12 02:28:56;;;;;;;2.55;0.93;;;;;;;18.81;41.09;100059.47;5001095;28;20034;-65
2023/04/12 02:31:22;;;;;;;2.47;0.90;;;;;;;18.80;41.02;100051.72;5001442;28;20036;-68
2023/04/12 02:33:47;;;;;;;4.97;1.10;;;;;;;18.79;41.08;100045.63;4981964;28;20030;-66
2023/04/12 02:36:13;;;;;;;3.63;1.10;;;;;;;18.77;40.96;100031.75;4994774;28;20508;-67
2023/04/12 02:38:38;;;;;;;4.07;1.00;;;;;;;18.80;41.12;100023.53;5001352;28;20092;-67
2023/04/12 02:41:03;;;;;;;2.38;0.80;;;;;;;18.78;41.27;100017.53;5000124;28;20263;-67
2023/04/12 02:43:29;;;;;;;3.28;1.10;;;;;;;18.76;41.07;100008.94;4996935;28;20033;-67
2023/04/12 02:45:54;;;;;;;1.77;0.80;;;;;;;18.75;41.09;99990.63;4971768;28;20034;-67
2023/04/12 02:48:19;;;;;;;3.60;0.90;;;;;;;18.78;41.17;99992.97;4988385;28;20061;-67
2023/04/12 02:50:45;;;;;;;3.87;1.30;;;;;;;18.78;41.07;99999.06;4999185;28;20085;-66
2023/04/12 02:53:10;;;;;;;3.40;0.95;;;;;;;18.77;40.98;99981.59;4998982;28;20274;-68
2023/04/12 02:55:37;;;;;;;2.80;1.00;;;;;;;18.76;40.94;99982.56;4982569;28;20034;-67
2023/04/12 02:58:02;;;;;;;3.60;1.00;;;;;;;18.74;41.15;99968.69;4990152;28;20279;-67
2023/04/12 03:00:28;;;;;;;2.72;1.02;;;;;;;18.77;41.14;99962.25;4993834;28;20022;-69
2023/04/12 03:02:54;;;;;;;2.95;0.93;;;;;;;18.77;41.10;99962.25;4996423;28;20041;-66
2023/04/12 03:05:19;;;;;;;2.83;0.93;;;;;;;18.73;41.06;99953.81;4985599;28;20096;-65
2023/04/12 03:07:45;;;;;;;2.65;1.15;;;;;;;18.74;41.16;99947.56;4988583;28;20182;-66
2023/04/12 03:10:10;;;;;;;3.28;1.00;;;;;;;18.71;41.14;99939.09;4988287;28;20031;-67
2023/04/12 03:12:36;;;;;;;2.90;0.90;;;;;;;18.74;41.17;99938.81;4990030;28;20033;-68
2023/04/12 03:15:02;;;;;;;2.33;1.00;;;;;;;18.71;41.05;99910.91;4998778;28;20040;-66
2023/04/12 03:17:27;;;;;;;2.20;0.80;;;;;;;18.73;41.06;99921.34;5000204;28;20037;-67
2023/04/12 03:19:52;;;;;;;3.50;1.10;;;;;;;18.72;40.89;99930.22;4999798;28;20117;-69
2023/04/12 03:22:18;;;;;;;2.60;1.00;;;;;;;18.75;41.08;99924.63;5000482;28;20058;-67
2023/04/12 03:24:44;;;;;;;3.00;1.13;;;;;;;18.71;41.01;99916.19;4991449;28;20056;-68
2023/04/12 03:27:10;;;;;;;2.90;1.00;;;;;;;18.73;41.00;99922.16;4992638;28;20690;-66
2023/04/12 03:29:35;;;;;;;3.00;1.00;;;;;;;18.74;41.17;99902.72;4992038;28;20538;-67
2023/04/12 03:32:01;;;;;;;2.08;0.70;;;;;;;18.73;41.26;99897.56;4996776;28;20030;-68
2023/04/12 03:34:30;;;;;;;2.22;0.90;;;;;;;18.74;41.11;99909.78;4988154;28;20120;-69
2023/04/12 03:36:56;;;;;;;2.17;0.80;;;;;;;18.74;41.15;99897.44;4982967;28;20033;-66
2023/04/12 03:39:21;;;;;;;2.45;0.80;;;;;;;18.71;41.32;99878.41;4986711;28;20923;-65
2023/04/12 03:41:47;;;;;;;2.28;1.00;;;;;;;18.71;41.04;99888.97;4995645;28;20030;-66
2023/04/12 03:44:13;;;;;;;3.10;0.93;;;;;;;18.71;41.35;99884.53;4992978;28;20065;-66
2023/04/12 03:46:38;;;;;;;2.92;0.70;;;;;;;18.73;41.19;99881.75;4984990;28;20097;-67
2023/04/12 03:49:03;;;;;;;2.47;1.00;;;;;;;18.70;41.17;99868.84;4963665;28;20026;-67
2023/04/12 03:51:29;;;;;;;3.60;0.80;;;;;;;18.72;41.17;99865.06;4981385;28;20056;-66
2023/04/12 03:53:55;;;;;;;3.00;0.90;;;;;;;18.73;41.24;99860.63;4989137;28;20032;-66
2023/04/12 03:56:20;;;;;;;1.95;0.70;;;;;;;18.71;41.12;99858.13;4981118;28;20500;-66
2023/04/12 03:58:46;;;;;;;2.63;0.80;;;;;;;18.70;41.09;99853.00;4984116;28;20049;-67
2023/04/12 04:01:12;;;;;;;2.47;0.95;;;;;;;18.71;41.09;99852.00;4982630;28;20045;-65
2023/04/12 04:03:39;;;;;;;2.35;0.90;;;;;;;18.70;41.39;99839.81;4986287;28;20037;-66
2023/04/12 04:06:05;;;;;;;1.95;0.77;;;;;;;18.70;41.21;99840.63;4984413;28;20030;-64
2023/04/12 04:08:31;;;;;;;3.10;0.90;;;;;;;18.68;41.28;99827.59;4990406;28;20512;-65
2023/04/12 04:10:57;;;;;;;1.58;0.65;;;;;;;18.68;41.26;99832.06;4988360;28;20037;-67
2023/04/12 04:13:23;;;;;;;1.63;0.70;;;;;;;18.66;41.36;99820.81;4992984;28;20132;-67
2023/04/12 04:15:55;;;;;;;3.10;0.80;;;;;;;18.66;41.21;99826.09;4994312;28;20117;-67
2023/04/12 04:18:21;;;;;;;2.47;0.80;;;;;;;18.66;41.43;99816.38;4992034;28;20505;-66
2023/04/12 04:20:46;;;;;;;2.22;0.80;;;;;;;18.60;41.24;99803.78;4998954;28;20060;-65
2023/04/12 04:23:11;;;;;;;1.90;0.77;;;;;;;18.65;41.97;99812.06;5003826;28;20076;-66
2023/04/12 04:25:38;;;;;;;1.75;0.60;;;;;;;18.64;41.28;99805.13;5003231;28;20755;-67
2023/04/12 04:28:06;;;;;;;3.35;0.98;;;;;;;18.64;41.55;99805.13;4993744;28;20597;-65
2023/04/12 04:30:37;;;;;;;1.95;0.70;;;;;;;18.65;41.61;99800.69;5003480;28;20114;-66
2023/04/12 04:33:04;;;;;;;2.60;0.80;;;;;;;18.64;41.46;99799.00;4991970;28;20491;-66
2023/04/12 04:35:30;;;;;;;2.13;0.80;;;;;;;18.62;41.35;99790.44;4984392;28;21041;-66
2023/04/12 04:37:55;;;;;;;2.17;0.70;;;;;;;18.61;41.60;99775.56;4972080;28;20025;-66
2023/04/12 04:40:22;;;;;;;1.58;0.60;;;;;;;18.64;41.41;99788.47;4989577;28;20030;-67
2023/04/12 04:42:53;;;;;;;1.58;0.68;;;;;;;18.62;41.59;99779.88;4998925;28;20430;-68
2023/04/12 04:45:20;;;;;;;2.10;0.77;;;;;;;18.60;41.52;99777.38;4996926;28;20033;-66
2023/04/12 04:47:46;;;;;;;2.08;0.70;;;;;;;18.61;41.71;99776.41;4983503;28;20034;-67
2023/04/12 04:50:11;;;;;;;2.35;0.80;;;;;;;18.61;41.51;99780.84;4983866;28;20533;-67
2023/04/12 04:52:38;;;;;;;3.38;0.80;;;;;;;18.60;41.46;99771.28;4993325;28;20092;-65
2023/04/12 04:55:03;;;;;;;2.55;0.80;;;;;;;18.59;41.61;99777.53;4998882;28;20476;-67
2023/04/12 04:57:29;;;;;;;2.03;0.80;;;;;;;18.59;41.68;99769.63;4985647;28;20099;-69
2023/04/12 04:59:54;;;;;;;1.63;0.60;;;;;;;18.60;41.33;99772.13;4983423;28;20042;-65
2023/04/12 05:02:20;;;;;;;2.25;0.70;;;;;;;18.61;41.59;99779.06;4999366;28;20033;-66
2023/04/12 05:04:45;;;;;;;1.52;0.60;;;;;;;18.58;41.69;99771.44;5001759;28;20038;-66
2023/04/12 05:07:13;;;;;;;1.80;0.60;;;;;;;18.59;41.55;99765.16;4976594;28;20038;-66
2023/04/12 05:09:38;;;;;;;2.38;0.82;;;;;;;18.60;41.66;99758.91;4988893;28;20084;-68
2023/04/12 05:12:03;;;;;;;1.25;0.68;;;;;;;18.59;41.68;99759.06;4983022;28;20030;-69
2023/04/12 05:14:28;;;;;;;1.77;0.63;;;;;;;18.58;41.58;99755.63;4975886;28;20030;-66
2023/04/12 05:16:54;;;;;;;2.40;0.80;;;;;;;18.58;41.61;99760.03;5002902;28;20053;-67
2023/04/12 05:19:19;;;;;;;1.48;0.63;;;;;;;18.58;41.60;99763.53;4992061;28;20049;-66
2023/04/12 05:21:45;;;;;;;1.45;0.60;;;;;;;18.58;41.47;99746.84;4986332;28;20161;-67
2023/04/12 05:24:10;;;;;;;1.83;0.60;;;;;;;18.60;41.54;99750.19;4972358;28;20506;-67
2023/04/12 05:26:36;;;;;;;1.85;0.77;;;;;;;18.60;41.43;99751.00;4978799;28;20073;-66
2023/04/12 05:29:01;;;;;;;2.22;0.70;;;;;;;18.62;41.47;99751.66;4979608;28;20456;-67
2023/04/12 05:31:27;;;;;;;1.88;0.60;;;;;;;18.64;41.80;99756.78;4964707;28;20039;-70
2023/04/12 05:33:53;;;;;;;1.75;0.65;;;;;;;18.68;41.60;99756.34;4973842;28;20027;-67
2023/04/12 05:36:19;;;;;;;1.80;0.70;;;;;;;18.69;41.91;99754.50;4963076;28;20030;-66
2023/04/12 05:38:44;;;;;;;3.22;0.80;;;;;;;18.69;41.77;99746.59;4967540;28;20038;-66
2023/04/12 05:41:09;;;;;;;1.55;0.60;;;;;;;18.75;41.60;99739.88;4974499;28;20034;-66
2023/04/12 05:43:36;;;;;;;2.20;0.70;;;;;;;18.75;41.85;99747.81;4973510;28;20073;-69
2023/04/12 05:46:02;;;;;;;2.00;0.80;;;;;;;18.77;41.72;99743.19;4982037;28;20060;-69
2023/04/12 05:48:27;;;;;;;1.70;0.55;;;;;;;18.78;41.80;99748.31;4971111;28;20049;-67
2023/04/12 05:50:53;;;;;;;1.60;0.70;;;;;;;18.82;41.61;99760.22;4972298;28;20547;-67
2023/04/12 05:53:20;;;;;;;1.42;0.70;;;;;;;18.85;41.60;99751.22;4982181;28;21233;-65
2023/04/12 05:55:45;;;;;;;2.40;0.70;;;;;;;18.90;41.82;99740.16;4962482;28;20110;-68
2023/04/12 05:58:11;;;;;;;1.73;0.52;;;;;;;18.92;41.75;99738.22;4968326;28;20038;-68
2023/04/12 06:00:38;;;;;;;1.85;0.60;;;;;;;18.92;41.74;99740.84;4979655;28;20039;-68
2023/04/12 06:03:03;;;;;;;2.08;0.70;;;;;;;18.91;41.84;99747.91;4962763;28;20039;-67
2023/04/12 06:05:29;;;;;;;2.40;0.70;;;;;;;18.88;41.79;99740.31;4973011;28;20096;-64
2023/04/12 06:07:54;;;;;;;2.25;0.70;;;;;;;18.94;41.70;99744.16;4972874;28;20030;-66
2023/04/12 06:10:20;;;;;;;1.60;0.50;;;;;;;18.94;41.71;99741.50;4969352;28;20027;-67
2023/04/12 06:12:46;;;;;;;1.05;0.50;;;;;;;18.97;41.68;99730.63;4962775;28;20476;-66
2023/04/12 06:15:11;;;;;;;0.85;0.50;;;;;;;18.96;41.74;99734.25;4972796;28;20384;-68
2023/04/12 06:17:37;;;;;;;2.60;0.70;;;;;;;18.97;41.86;99731.47;4981777;28;21099;-67
2023/04/12 06:20:09;;;;;;;1.63;0.60;;;;;;;18.96;41.55;99735.09;4962471;28;20484;-66
2023/04/12 06:22:35;;;;;;;2.28;0.60;;;;;;;19.00;41.75;99735.59;4974933;28;20283;-66
2023/04/12 06:25:00;;;;;;;2.80;0.65;;;;;;;18.98;41.80;99732.31;4985639;28;20415;-68
2023/04/12 06:27:26;;;;;;;1.70;0.50;;;;;;;19.02;41.70;99734.44;4998520;28;20026;-68
2023/04/12 06:29:51;;;;;;;1.98;0.50;;;;;;;19.01;41.67;99726.72;4981835;28;20489;-68
2023/04/12 06:32:17;;;;;;;2.60;0.73;;;;;;;19.01;41.88;99724.88;4985663;28;21280;-67
2023/04/12 06:34:42;;;;;;;2.35;0.70;;;;;;;19.02;42.12;99725.72;4990102;28;20030;-66
2023/04/12 06:37:08;;;;;;;2.22;0.60;;;;;;;19.01;42.38;99719.59;4991192;28;20045;-66
2023/04/12 06:39:33;;;;;;;2.70;0.70;;;;;;;18.99;42.47;99715.47;4981441;28;20042;-67
2023/04/12 06:41:58;;;;;;;1.17;0.57;;;;;;;19.01;42.32;99727.53;4981973;28;20037;-66
2023/04/12 06:44:25;;;;;;;1.30;0.60;;;;;;;19.00;42.21;99719.75;4995216;28;20100;-66
2023/04/12 06:46:51;;;;;;;2.03;0.70;;;;;;;19.03;42.39;99725.56;4981612;28;20446;-67
2023/04/12 06:49:16;;;;;;;1.63;0.68;;;;;;;19.05;42.39;99729.84;4985488;28;20526;-67
2023/04/12 06:51:41;;;;;;;1.10;0.50;;;;;;;19.03;42.54;99733.47;4987985;28;20066;-66
2023/04/12 06:54:07;;;;;;;2.38;0.60;;;;;;;18.98;42.51;99724.38;4975066;28;20287;-68
2023/04/12 06:56:33;;;;;;;2.43;0.60;;;;;;;18.96;42.74;99719.25;4983744;28;20041;-67
2023/04/12 06:58:58;;;;;;;2.05;0.70;;;;;;;19.00;42.66;99730.31;4993365;28;20345;-65
2023/04/12 07:01:24;;;;;;;6.15;0.70;;;;;;;19.01;42.87;99738.09;4992122;28;20027;-67
2023/04/12 07:03:49;;;;;;;1.75;0.60;;;;;;;19.03;42.94;99732.66;4974247;28;20367;-67
2023/04/12 07:06:14;;;;;;;2.55;0.50;;;;;;;19.03;42.79;99730.84;4982633;28;20037;-67
2023/04/12 07:08:39;;;;;;;1.52;0.60;;;;;;;19.05;43.08;99729.84;4981223;28;20026;-66
2023/04/12 07:11:05;;;;;;;0.98;0.57;;;;;;;19.03;43.11;99725.56;4983077;28;20034;-67
2023/04/12 07:13:30;;;;;;;2.30;0.70;;;;;;;19.04;43.41;99731.66;4998417;28;20034;-67
2023/04/12 07:15:57;;;;;;;1.42;0.70;;;;;;;19.03;43.34;99735.28;5001174;28;20425;-66
2023/04/12 07:18:22;;;;;;;1.83;0.70;;;;;;;19.03;43.35;99730.84;4985904;28;20125;-65
2023/04/12 07:20:51;;;;;;;2.42;0.75;;;;;;;19.05;43.45;99729.84;4993130;28;20483;-66
2023/04/12 07:23:17;;;;;;;1.25;0.60;;;;;;;19.07;43.47;99730.53;4963981;28;20061;-66
2023/04/12 07:25:42;;;;;;;2.40;0.70;;;;;;;19.04;43.35;99726.38;4963777;28;20030;-66
2023/04/12 07:28:07;;;;;;;2.00;0.63;;;;;;;19.07;43.55;99739.25;4989125;28;20559;-64
2023/04/12 07:30:32;;;;;;;2.63;0.73;;;;;;;19.07;43.54;99735.81;4996242;28;20267;-67
2023/04/12 07:32:59;;;;;;;3.00;0.77;;;;;;;19.06;43.72;99729.69;4986614;28;20037;-65
2023/04/12 07:35:25;;;;;;;2.67;0.60;;;;;;;19.07;43.79;99731.34;4990647;28;20364;-65
2023/04/12 07:37:51;;;;;;;2.55;0.70;;;;;;;19.08;43.70;99724.25;4993970;28;20057;-65
2023/04/12 07:40:16;;;;;;;1.50;0.60;;;;;;;19.08;43.61;99719.81;4995556;28;20034;-67
2023/04/12 07:42:41;;;;;;;1.85;0.60;;;;;;;19.07;44.19;99720.78;4995841;28;20786;-68
2023/04/12 07:45:07;;;;;;;2.05;0.70;;;;;;;19.09;44.01;99724.09;5002403;28;20037;-66
2023/04/12 07:47:32;;;;;;;3.05;0.73;;;;;;;19.08;43.91;99717.16;4996160;28;20038;-68
2023/04/12 07:49:57;;;;;;;4.97;0.60;;;;;;;19.08;43.96;99711.06;4985078;28;20038;-66
2023/04/12 07:52:23;;;;;;;3.35;0.68;;;;;;;19.08;44.19;99708.41;5003705;28;20049;-66
2023/04/12 07:54:48;;;;;;;3.78;0.90;;;;;;;19.08;44.17;99716.34;4999499;28;20040;-67
2023/04/12 07:57:14;;;;;;;2.97;0.75;;;;;;;19.09;44.42;99710.91;4993991;28;20030;-67
2023/04/12 07:59:39;;;;;;;3.38;0.80;;;;;;;19.20;44.35;99725.63;4996677;28;20025;-65
2023/04/12 08:02:05;;;;;;;4.95;0.75;;;;;;;19.24;44.06;99724.31;4993684;28;20027;-66
2023/04/12 08:04:31;;;;;;;5.85;0.80;;;;;;;19.21;44.22;99725.47;5001380;28;20036;-67
2023/04/12 08:06:56;;;;;;;2.35;0.73;;;;;;;19.25;44.13;99715.44;4995809;28;20030;-66
2023/04/12 08:09:23;;;;;;;5.60;0.85;;;;;;;19.21;44.06;99714.06;4989210;28;20034;-68
2023/04/12 08:11:48;;;;;;;3.10;0.80;;;;;;;19.26;44.08;99727.63;4985890;28;20140;-66
2023/04/12 08:14:14;;;;;;;3.03;0.90;;;;;;;19.26;44.18;99735.56;4997879;28;20809;-67
2023/04/12 08:16:39;;;;;;;3.03;0.80;;;;;;;19.24;44.31;99740.16;4992650;28;20042;-67
2023/04/12 08:19:04;;;;;;;4.93;1.08;;;;;;;19.26;44.23;99740.84;4985651;28;20541;-69
2023/04/12 08:21:30;;;;;;;4.03;0.90;;;;;;;19.25;44.32;99733.06;4995033;28;20036;-67
2023/04/12 08:23:55;;;;;;;1.83;0.60;;;;;;;19.28;44.17;99727.47;4985860;28;20038;-68
2023/04/12 08:26:21;;;;;;;2.83;0.90;;;;;;;19.26;44.26;99734.72;4978518;28;20359;-65
2023/04/12 08:28:47;;;;;;;4.38;0.70;;;;;;;19.24;44.31;99734.88;4992483;28;20128;-66
2023/04/12 08:31:13;;;;;;;1.85;0.77;;;;;;;19.18;44.43;99736.38;4991452;28;20037;-66
2023/04/12 08:33:38;;;;;;;3.30;0.80;;;;;;;19.17;44.77;99744.44;5000361;28;20485;-65
2023/04/12 08:36:04;;;;;;;4.35;1.13;;;;;;;19.17;44.64;99737.34;4998299;28;20039;-68
2023/04/12 08:38:30;;;;;;;2.58;0.73;;;;;;;19.21;44.83;99737.84;4989746;28;20042;-69
2023/04/12 08:40:56;;;;;;;3.10;0.88;;;;;;;19.23;44.64;99730.59;5001655;28;20045;-70
2023/04/12 08:43:27;;;;;;;2.95;0.90;;;;;;;19.28;44.48;99716.91;4998501;28;20107;-69
2023/04/12 08:45:53;;;;;;;3.60;0.93;;;;;;;19.28;44.45;99716.91;4997658;28;20518;-68
2023/04/12 08:48:21;;;;;;;3.58;1.40;;;;;;;19.26;44.60;99711.78;4987675;28;20034;-66
2023/04/12 08:50:47;;;;;;;3.65;0.98;;;;;;;19.29;44.61;99710.66;4995845;28;20490;-68
2023/04/12 08:53:12;;;;;;;8.43;1.52;;;;;;;19.31;44.74;99728.00;4991673;28;20046;-69
2023/04/12 08:55:38;;;;;;;5.28;1.00;;;;;;;19.30;44.71;99723.69;4985127;28;20037;-68
2023/04/12 08:58:06;;;;;;;4.03;1.10;;;;;;;19.35;44.57;99731.16;4988832;28;20049;-67
2023/04/12 09:00:33;;;;;;;3.53;0.90;;;;;;;19.29;44.42;99724.66;4998599;28;20354;-67
2023/04/12 09:02:58;;;;;;;4.05;1.00;;;;;;;19.28;44.78;99724.81;5000351;28;20045;-69
2023/04/12 09:05:30;;;;;;;4.25;1.08;;;;;;;19.28;45.00;99716.91;4992361;28;20038;-69
2023/04/12 09:07:57;;;;;;;4.13;1.00;;;;;;;19.28;45.03;99715.09;4996672;28;20092;-71
2023/04/12 09:10:37;;;;;;;2.90;1.00;;;;;;;19.26;44.91;99713.59;4990829;28;20037;-67
2023/04/12 09:13:04;;;;;;;3.60;1.10;;;;;;;19.28;44.97;99701.06;4991727;28;20034;-70
2023/04/12 09:15:29;;;;;;;3.55;0.85;;;;;;;19.26;45.04;99703.84;4985793;28;20035;-68
2023/04/12 09:18:06;;;;;;;3.45;0.90;;;;;;;19.27;44.93;99708.16;4990239;28;20045;-69
2023/04/12 09:20:32;;;;;;;5.03;1.10;;;;;;;19.28;44.89;99708.97;4989869;28;20092;-71
2023/04/12 09:22:58;;;;;;;3.08;0.90;;;;;;;19.26;45.01;99695.13;4990226;28;20113;-69
2023/04/12 09:25:36;;;;;;;3.10;1.20;;;;;;;19.30;44.82;99701.75;4987536;28;20034;-68
2023/04/12 09:28:01;;;;;;;7.38;1.40;;;;;;;19.31;44.84;99696.31;4993177;28;20042;-66
2023/04/12 09:30:27;;;;;;;4.63;1.08;;;;;;;19.33;44.77;99691.69;4985896;28;20045;-66
2023/04/12 09:32:54;;;;;;;3.57;1.20;;;;;;;19.38;44.70;99696.47;4991126;28;20029;-71
2023/04/12 09:35:33;;;;;;;4.97;1.25;;;;;;;19.35;44.64;99699.44;4990738;28;20282;-70
2023/04/12 09:38:06;;;;;;;6.40;1.38;;;;;;;19.34;44.80;99697.78;4999047;28;20100;-70
2023/04/12 09:40:35;;;;;;;4.18;1.35;;;;;;;19.35;44.91;99702.09;5001827;28;20033;-70
2023/04/12 09:43:00;;;;;;;4.55;1.15;;;;;;;19.32;44.74;99695.28;4993337;28;20173;-71
2023/04/12 09:45:27;;;;;;;3.30;1.20;;;;;;;19.34;44.87;99706.56;4987096;28;20132;-70
2023/04/12 09:47:54;;;;;;;3.88;1.25;;;;;;;19.24;45.02;99682.06;4998652;28;20041;-67
2023/04/12 09:50:25;;;;;;;5.75;1.50;;;;;;;19.28;44.79;99688.69;4989810;28;20065;-69
2023/04/12 09:52:52;;;;;;;5.75;1.35;;;;;;;19.28;44.93;99680.78;4982143;28;20495;-69
2023/04/12 09:55:19;;;;;;;5.05;1.20;;;;;;;19.24;45.14;99674.13;4964028;28;20030;-67
2023/04/12 09:57:47;;;;;;;6.20;1.52;;;;;;;19.29;45.02;99684.22;4983266;28;20582;-69
2023/04/12 10:00:16;;;;;;;6.45;1.60;;;;;;;19.28;44.92;99682.56;4985840;28;20037;-66
2023/04/12 10:02:44;;;;;;;5.30;1.30;;;;;;;19.25;44.73;99678.44;4981995;28;20045;-68
2023/04/12 10:05:12;;;;;;;4.28;1.50;;;;;;;19.26;44.69;99666.06;4981680;28;21155;-65
2023/04/12 10:07:41;;;;;;;5.05;1.23;;;;;;;19.24;44.64;99676.78;4996658;28;20068;-67
2023/04/12 10:10:07;;;;;;;5.13;1.42;;;;;;;19.24;44.60;99673.31;4993457;28;20038;-67
2023/04/12 10:12:35;;;;;;;6.22;1.45;;;;;;;19.24;44.44;99692.63;4990872;28;20042;-68
2023/04/12 10:15:06;;;;;;;7.72;1.70;;;;;;;19.19;44.63;99692.28;4991731;28;20030;-68
2023/04/12 10:17:33;;;;;;;7.95;1.45;;;;;;;19.25;44.79;99709.28;4988065;28;20048;-67
2023/04/12 10:19:59;;;;;;;9.60;1.88;;;;;;;19.38;44.22;99692.00;4991498;28;20038;-67
2023/04/12 10:22:25;;;;;;;7.15;1.52;;;;;;;19.45;44.02;99701.94;4972614;28;20388;-66
2023/04/12 10:24:51;;;;;;;6.03;1.80;;;;;;;19.46;43.82;99685.94;4990960;28;20045;-68
2023/04/12 10:27:25;;;;;;;5.68;1.58;;;;;;;19.48;43.77;99686.59;4970834;28;20179;-69
2023/04/12 10:29:50;;;;;;;5.65;1.33;;;;;;;19.49;43.63;99692.72;4979761;28;20042;-69
2023/04/12 10:32:21;;;;;;;4.75;1.42;;;;;;;19.47;43.71;99699.97;4991666;28;20048;-69
2023/04/12 10:34:53;;;;;;;5.15;1.60;;;;;;;19.45;43.85;99688.72;4986148;28;20038;-71
2023/04/12 10:37:19;;;;;;;6.38;1.90;;;;;;;19.48;43.74;99701.63;4989945;28;20122;-69
2023/04/12 10:39:51;;;;;;;6.82;1.67;;;;;;;19.45;43.52;99704.59;4989730;28;20041;-69
2023/04/12 10:42:26;;;;;;;7.70;1.40;;;;;;;19.44;43.50;99705.56;4992307;28;20115;-69
2023/04/12 10:45:12;;;;;;;7.07;1.60;;;;;;;19.42;43.74;99718.94;4984152;28;20383;-70
2023/04/12 10:47:47;;;;;;;7.53;2.05;;;;;;;19.40;43.89;99732.31;4986189;28;20034;-68
2023/04/12 10:50:26;;;;;;;8.65;1.98;;;;;;;19.38;43.97;99726.38;4984595;28;20368;-68
2023/04/12 10:53:14;;;;;;;9.38;2.78;;;;;;;19.40;43.93;99720.91;4987936;28;20087;-66
2023/04/12 10:55:45;;;;;;;11.40;2.13;;;;;;;19.34;44.31;99710.97;4991643;28;20034;-68
2023/04/12 10:58:46;;;;;;;7.53;2.22;;;;;;;19.33;44.26;99718.09;4988065;28;20045;-67
2023/04/12 11:01:12;;;;;;;9.02;2.42;;;;;;;19.31;44.46;99722.72;4991290;28;20038;-67
2023/04/12 11:04:06;;;;;;;7.63;2.20;;;;;;;19.24;44.53;99719.03;4996294;28;20053;-68
2023/04/12 11:06:52;;;;;;;10.07;2.33;;;;;;;19.25;44.34;99718.06;4996177;28;20037;-66
2023/04/12 11:09:21;;;;;;;8.82;1.92;;;;;;;19.30;44.76;99720.22;4985027;28;20069;-69
2023/04/12 11:11:47;;;;;;;7.65;2.28;;;;;;;19.37;44.80;99723.88;4968641;28;20034;-66
2023/04/12 11:14:16;;;;;;;9.05;2.25;;;;;;;19.34;44.76;99722.41;4987181;28;20130;-70
2023/04/12 11:17:09;;;;;;;9.00;2.03;;;;;;;19.28;45.05;99733.59;4986096;28;20036;-69
2023/04/12 11:19:37;;;;;;;9.05;3.00;;;;;;;19.29;45.04;99737.06;5000060;28;20474;-69
2023/04/12 11:22:05;;;;;;;11.63;2.33;;;;;;;19.29;44.70;99734.41;4999733;28;20049;-67
2023/04/12 11:24:30;;;;;;;9.30;2.08;;;;;;;19.31;44.71;99727.16;4996853;28;20026;-67
2023/04/12 11:26:57;;;;;;;11.35;2.38;;;;;;;19.32;44.59;99718.25;4984935;28;20045;-65
2023/04/12 11:29:23;;;;;;;9.40;2.30;;;;;;;19.35;44.47;99720.56;4999080;28;20048;-66
2023/04/12 11:31:48;;;;;;;10.55;3.22;;;;;;;19.32;44.47;99713.78;5004724;28;20034;-65
2023/04/12 11:34:18;;;;;;;10.35;2.50;;;;;;;19.32;44.59;99715.59;4996758;28;20501;-67